Terminal Aerodrome Forecast
Issued by NWS

Home | Current Version | Previous Version | Text Only | Print | Product List | Glossary On
Versions: 1 2 3 4 5 6 7 8 9 10 11 12 13 14
000
FTUS45 KPSR 252323
TAFBLH
TAF
KBLH 252323Z 2600/2624 22015G25KT P6SM FEW150
     FM260500 23010KT P6SM FEW120
     FM260900 VRB05KT P6SM SCT220
     FM261800 17008KT P6SM SKC=

USA.gov is the U.S. government's official web portal to all federal, state and local government web resources and services.